createdAt,value
2024-03-26T00:01:58.501Z,7.34
2024-03-26T00:04:25.725Z,7.35
2024-03-26T00:06:51.836Z,7.32
2024-03-26T00:09:18.014Z,7.30
2024-03-26T00:11:45.926Z,7.29
2024-03-26T00:14:12.114Z,7.31
2024-03-26T00:16:40.420Z,7.25
2024-03-26T00:19:08.969Z,7.24
2024-03-26T00:21:36.116Z,7.21
2024-03-26T00:24:02.212Z,7.22
2024-03-26T00:26:28.630Z,7.22
2024-03-26T00:28:55.206Z,7.18
2024-03-26T00:31:21.359Z,7.17
2024-03-26T00:33:47.764Z,7.11
2024-03-26T00:36:13.882Z,7.07
2024-03-26T00:38:40.752Z,7.01
2024-03-26T00:41:06.957Z,6.94
2024-03-26T00:43:33.072Z,6.93
2024-03-26T00:45:59.201Z,6.89
2024-03-26T00:48:25.854Z,6.87
2024-03-26T00:50:51.941Z,6.85
2024-03-26T00:53:18.098Z,6.81
2024-03-26T00:55:45.238Z,6.78
2024-03-26T00:58:11.346Z,6.79
2024-03-26T01:00:38.658Z,6.77
2024-03-26T01:03:05.433Z,6.77
2024-03-26T01:05:31.562Z,6.76
2024-03-26T01:07:57.930Z,6.74
2024-03-26T01:10:24.450Z,6.70
2024-03-26T01:12:51.227Z,6.71
2024-03-26T01:15:17.500Z,6.68
2024-03-26T01:17:43.987Z,6.64
2024-03-26T01:20:11.242Z,6.60
2024-03-26T01:22:37.373Z,6.59
2024-03-26T01:25:06.286Z,6.59
2024-03-26T01:27:32.510Z,6.60
2024-03-26T01:29:59.336Z,6.58
2024-03-26T01:32:25.562Z,6.52
2024-03-26T01:34:51.945Z,6.52
2024-03-26T01:37:18.068Z,6.50
2024-03-26T01:39:44.510Z,6.50
2024-03-26T01:42:10.673Z,6.50
2024-03-26T01:44:36.751Z,6.49
2024-03-26T01:47:03.925Z,6.50
2024-03-26T01:49:30.559Z,6.49
2024-03-26T01:51:56.743Z,6.45
2024-03-26T01:54:23.175Z,6.43
2024-03-26T01:56:49.601Z,6.38
2024-03-26T01:59:16.292Z,6.33
2024-03-26T02:01:42.734Z,6.33
2024-03-26T02:04:09.542Z,6.29
2024-03-26T02:06:35.751Z,6.26
2024-03-26T02:09:02.608Z,6.21
2024-03-26T02:11:28.537Z,6.16
2024-03-26T02:13:54.675Z,6.18
2024-03-26T02:16:21.097Z,6.15
2024-03-26T02:18:47.239Z,6.16
2024-03-26T02:21:14.169Z,6.19
2024-03-26T02:23:40.628Z,6.21
2024-03-26T02:26:10.263Z,6.20
2024-03-26T02:28:36.381Z,6.19
2024-03-26T02:31:02.843Z,6.20
2024-03-26T02:33:28.953Z,6.12
2024-03-26T02:35:55.098Z,6.21
2024-03-26T02:38:21.449Z,6.20
2024-03-26T02:40:47.600Z,6.19
2024-03-26T02:43:14.374Z,6.19
2024-03-26T02:45:40.779Z,6.19
2024-03-26T02:48:09.928Z,6.20
2024-03-26T02:50:36.048Z,6.23
2024-03-26T02:53:02.525Z,6.24
2024-03-26T02:55:28.676Z,6.25
2024-03-26T02:57:54.783Z,6.25
2024-03-26T03:00:21.785Z,6.25
2024-03-26T03:02:47.902Z,6.25
2024-03-26T03:05:14.088Z,6.26
2024-03-26T03:07:40.592Z,6.28
2024-03-26T03:10:08.099Z,6.27
2024-03-26T03:12:34.300Z,6.25
2024-03-26T03:15:00.780Z,6.26
2024-03-26T03:17:32.084Z,6.26
2024-03-26T03:19:58.192Z,6.28
2024-03-26T03:22:24.621Z,6.26
2024-03-26T03:24:50.713Z,6.26
2024-03-26T03:27:16.842Z,6.28
2024-03-26T03:29:43.270Z,6.31
2024-03-26T03:32:09.442Z,6.33
2024-03-26T03:34:36.159Z,6.36
2024-03-26T03:37:02.573Z,6.35
2024-03-26T03:39:28.953Z,6.34
2024-03-26T03:41:55.091Z,6.31
2024-03-26T03:44:21.567Z,6.28
2024-03-26T03:46:47.674Z,6.31
2024-03-26T03:49:13.888Z,6.31
2024-03-26T03:51:40.880Z,6.31
2024-03-26T03:54:06.961Z,6.34
2024-03-26T03:56:33.066Z,6.26
2024-03-26T03:58:59.523Z,6.30
2024-03-26T04:01:25.659Z,6.28
2024-03-26T04:03:51.743Z,6.31
2024-03-26T04:06:18.155Z,6.30
2024-03-26T04:08:44.881Z,6.28
2024-03-26T04:11:11.032Z,6.29
2024-03-26T04:13:37.882Z,6.29
2024-03-26T04:16:03.877Z,6.26
2024-03-26T04:18:30.836Z,6.27
2024-03-26T04:20:58.243Z,6.27
2024-03-26T04:23:24.372Z,6.25
2024-03-26T04:25:58.326Z,6.24
2024-03-26T04:28:26.654Z,6.21
2024-03-26T04:30:52.931Z,6.21
2024-03-26T04:33:19.437Z,6.20
2024-03-26T04:35:45.658Z,6.18
2024-03-26T04:38:12.616Z,6.17
2024-03-26T04:40:38.800Z,6.16
2024-03-26T04:43:06.406Z,6.17
2024-03-26T04:45:33.184Z,6.15
2024-03-26T04:47:59.294Z,6.13
2024-03-26T04:50:26.156Z,6.13
2024-03-26T04:52:52.338Z,6.10
2024-03-26T04:55:18.492Z,6.09
2024-03-26T04:57:44.863Z,6.05
2024-03-26T05:00:13.218Z,5.99
2024-03-26T05:02:39.498Z,6.03
2024-03-26T05:05:05.849Z,6.05
2024-03-26T05:07:32.720Z,5.95
2024-03-26T05:09:58.628Z,5.95
2024-03-26T05:12:24.728Z,5.94
2024-03-26T05:14:51.321Z,5.96
2024-03-26T05:17:18.233Z,5.96
2024-03-26T05:19:44.150Z,5.92
2024-03-26T05:22:10.586Z,5.94
2024-03-26T05:24:38.695Z,5.93
2024-03-26T05:27:05.961Z,5.96
2024-03-26T05:29:32.650Z,5.93
2024-03-26T05:31:58.933Z,5.93
2024-03-26T05:34:25.695Z,5.92
2024-03-26T05:36:52.113Z,5.96
2024-03-26T05:39:18.247Z,5.93
2024-03-26T05:41:44.344Z,5.96
2024-03-26T05:44:10.797Z,5.96
2024-03-26T05:46:36.936Z,5.95
2024-03-26T05:49:03.077Z,5.94
2024-03-26T05:51:30.115Z,5.93
2024-03-26T05:53:56.291Z,5.95
2024-03-26T05:56:22.475Z,5.98
2024-03-26T05:58:48.862Z,6.00
2024-03-26T06:01:15.028Z,6.04
2024-03-26T06:03:41.154Z,6.07
2024-03-26T06:06:07.631Z,6.10
2024-03-26T06:08:37.449Z,6.14
2024-03-26T06:11:03.877Z,6.17
2024-03-26T06:13:30.482Z,6.18
2024-03-26T06:16:04.635Z,6.23
2024-03-26T06:18:31.125Z,6.29
2024-03-26T06:20:57.303Z,6.33
2024-03-26T06:23:23.663Z,6.40
2024-03-26T06:25:50.977Z,6.45
2024-03-26T06:28:17.854Z,6.51
2024-03-26T06:30:44.139Z,6.59
2024-03-26T06:33:12.137Z,6.64
2024-03-26T06:35:38.408Z,6.75
2024-03-26T06:38:05.727Z,6.83
2024-03-26T06:40:32.181Z,6.91
2024-03-26T06:42:58.960Z,7.02
2024-03-26T06:45:24.853Z,7.06
2024-03-26T06:47:51.385Z,7.19
2024-03-26T06:50:17.932Z,7.28
2024-03-26T06:52:45.954Z,7.37
2024-03-26T06:55:13.462Z,7.45
2024-03-26T06:57:39.600Z,7.54
2024-03-26T07:00:08.828Z,7.58
2024-03-26T07:02:36.377Z,7.64
2024-03-26T07:05:02.688Z,7.67
2024-03-26T07:07:28.952Z,7.75
2024-03-26T07:09:55.400Z,7.82
2024-03-26T07:12:21.546Z,7.86
2024-03-26T07:14:47.725Z,7.96
2024-03-26T07:17:14.769Z,8.01
2024-03-26T07:19:41.200Z,8.03
2024-03-26T07:22:07.359Z,8.06
2024-03-26T07:24:33.735Z,8.13
2024-03-26T07:26:59.931Z,8.21
2024-03-26T07:29:26.129Z,8.27
2024-03-26T07:31:52.653Z,8.37
2024-03-26T07:34:19.477Z,8.49
2024-03-26T07:36:45.607Z,8.57
2024-03-26T07:39:15.968Z,8.66
2024-03-26T07:41:42.213Z,8.76
2024-03-26T07:44:08.475Z,8.89
2024-03-26T07:46:35.721Z,8.99
2024-03-26T07:49:02.220Z,9.01
2024-03-26T07:51:29.122Z,9.10
2024-03-26T07:53:55.619Z,9.22
2024-03-26T07:56:22.383Z,9.36
2024-03-26T07:58:48.785Z,9.45
2024-03-26T08:01:15.216Z,9.62
2024-03-26T08:03:41.297Z,9.69
2024-03-26T08:06:07.459Z,9.84
2024-03-26T08:08:34.554Z,9.96
2024-03-26T08:11:00.943Z,10.06
2024-03-26T08:13:27.123Z,10.14
2024-03-26T08:15:53.578Z,10.16
2024-03-26T08:18:20.332Z,10.25
2024-03-26T08:20:46.583Z,10.30
2024-03-26T08:23:13.049Z,10.37
2024-03-26T08:25:39.811Z,10.36
2024-03-26T08:28:06.175Z,10.36
2024-03-26T08:30:32.619Z,10.38
2024-03-26T08:32:58.930Z,10.42
2024-03-26T08:35:25.139Z,10.41
2024-03-26T08:37:51.675Z,10.46
2024-03-26T08:40:18.232Z,10.59
2024-03-26T08:42:44.878Z,10.68
2024-03-26T08:45:12.220Z,10.81
2024-03-26T08:47:39.134Z,11.11
2024-03-26T08:50:08.177Z,11.33
2024-03-26T08:52:34.657Z,11.54
2024-03-26T08:55:00.587Z,11.57
2024-03-26T08:57:26.707Z,11.75
2024-03-26T08:59:53.728Z,11.86
2024-03-26T09:02:20.353Z,11.95
2024-03-26T09:04:47.017Z,12.05
2024-03-26T09:07:13.392Z,12.11
2024-03-26T09:09:39.550Z,12.10
2024-03-26T09:12:06.400Z,12.11
2024-03-26T09:14:32.763Z,12.13
2024-03-26T09:16:59.571Z,12.15
2024-03-26T09:19:25.743Z,12.21
2024-03-26T09:21:53.184Z,12.30
2024-03-26T09:24:20.778Z,12.36
2024-03-26T09:26:46.884Z,12.42
2024-03-26T09:29:13.302Z,12.45
2024-03-26T09:31:40.093Z,12.49
2024-03-26T09:34:07.013Z,12.64
2024-03-26T09:36:33.414Z,12.71
2024-03-26T09:39:07.753Z,12.69
2024-03-26T09:41:37.169Z,12.81
2024-03-26T09:44:03.542Z,12.82
2024-03-26T09:46:29.609Z,12.67
2024-03-26T09:48:58.786Z,12.82
2024-03-26T09:51:27.103Z,12.76
2024-03-26T09:53:55.093Z,12.77
2024-03-26T09:56:22.766Z,12.80
2024-03-26T09:58:49.322Z,12.81
2024-03-26T10:01:17.695Z,12.81
2024-03-26T10:03:44.392Z,12.80
2024-03-26T10:06:10.721Z,12.84
2024-03-26T10:08:37.530Z,12.92
2024-03-26T10:11:05.197Z,12.81
2024-03-26T10:13:31.718Z,12.93
2024-03-26T10:15:57.861Z,12.97
2024-03-26T10:18:24.315Z,13.05
2024-03-26T10:20:50.240Z,13.03
2024-03-26T10:23:16.356Z,13.20
2024-03-26T10:25:43.456Z,13.27
2024-03-26T10:28:09.601Z,13.33
2024-03-26T10:30:35.790Z,13.38
2024-03-26T10:33:02.284Z,13.27
2024-03-26T10:35:31.147Z,13.37
2024-03-26T10:38:04.416Z,13.52
2024-03-26T10:40:39.706Z,13.53
2024-03-26T10:43:06.926Z,13.84
2024-03-26T10:45:44.283Z,13.96
2024-03-26T10:48:21.046Z,14.00
2024-03-26T10:50:47.838Z,14.15
2024-03-26T10:53:14.496Z,14.37
2024-03-26T10:55:41.285Z,14.45
2024-03-26T10:58:08.253Z,14.39
2024-03-26T11:00:35.372Z,14.31
2024-03-26T11:03:02.630Z,14.41
2024-03-26T11:05:30.859Z,14.50
2024-03-26T11:07:57.145Z,14.57
2024-03-26T11:10:23.792Z,14.76
2024-03-26T11:12:50.969Z,14.85
2024-03-26T11:15:22.438Z,15.04
2024-03-26T11:17:52.930Z,15.05
2024-03-26T11:20:21.548Z,15.06
2024-03-26T11:22:55.075Z,14.94
2024-03-26T11:25:25.052Z,14.97
2024-03-26T11:27:52.298Z,15.10
2024-03-26T11:30:19.003Z,15.06
2024-03-26T11:32:46.117Z,15.03
2024-03-26T11:35:17.273Z,14.93
2024-03-26T11:37:43.747Z,14.73
2024-03-26T11:40:10.225Z,14.75
2024-03-26T11:42:37.284Z,14.88
2024-03-26T11:45:05.811Z,15.15
2024-03-26T11:47:32.107Z,15.34
2024-03-26T11:49:58.861Z,15.36
2024-03-26T11:52:25.528Z,15.45
2024-03-26T11:54:51.722Z,15.52
2024-03-26T11:57:18.140Z,15.67
2024-03-26T11:59:45.034Z,15.81
2024-03-26T12:02:12.171Z,15.86
2024-03-26T12:04:38.449Z,16.06
2024-03-26T12:07:06.068Z,16.21
2024-03-26T12:09:32.573Z,16.21
2024-03-26T12:12:00.328Z,16.30
2024-03-26T12:14:27.311Z,16.39
2024-03-26T12:16:53.877Z,16.40
2024-03-26T12:19:21.175Z,16.34
2024-03-26T12:21:49.760Z,16.09
2024-03-26T12:24:17.953Z,16.05
2024-03-26T12:26:44.097Z,16.01
2024-03-26T12:29:11.825Z,15.99
2024-03-26T12:31:38.273Z,16.07
2024-03-26T12:34:08.176Z,16.03
2024-03-26T12:36:36.448Z,16.03
2024-03-26T12:39:04.021Z,15.95
2024-03-26T12:41:30.989Z,16.03
2024-03-26T12:43:57.567Z,16.09
2024-03-26T12:46:29.317Z,16.14
2024-03-26T12:48:56.932Z,16.18
2024-03-26T12:51:24.623Z,16.27
2024-03-26T12:54:01.958Z,16.30
2024-03-26T12:56:28.768Z,16.40
2024-03-26T12:58:56.632Z,16.57
2024-03-26T13:01:22.920Z,16.65
2024-03-26T13:03:49.282Z,16.58
2024-03-26T13:06:15.451Z,16.63
2024-03-26T13:08:41.632Z,16.70
2024-03-26T13:11:11.998Z,16.58
2024-03-26T13:13:39.126Z,16.66
2024-03-26T13:16:06.588Z,16.55
2024-03-26T13:18:34.237Z,16.62
2024-03-26T13:21:00.420Z,16.73
2024-03-26T13:23:26.656Z,16.79
2024-03-26T13:25:54.159Z,16.68
2024-03-26T13:28:20.431Z,16.75
2024-03-26T13:30:47.410Z,16.85
2024-03-26T13:33:14.726Z,16.77
2024-03-26T13:35:41.019Z,16.68
2024-03-26T13:38:07.063Z,16.45
2024-03-26T13:40:46.645Z,16.49
2024-03-26T13:43:19.481Z,16.64
2024-03-26T13:45:46.953Z,16.77
2024-03-26T13:48:15.406Z,16.88
2024-03-26T13:50:43.883Z,17.04
2024-03-26T13:53:11.683Z,16.99
2024-03-26T13:55:38.741Z,17.01
2024-03-26T13:58:05.425Z,16.82
2024-03-26T14:00:31.995Z,16.77
2024-03-26T14:02:58.113Z,16.70
2024-03-26T14:05:24.958Z,16.65
2024-03-26T14:07:51.404Z,16.55
2024-03-26T14:10:17.558Z,16.53
2024-03-26T14:12:44.423Z,16.29
2024-03-26T14:15:10.876Z,16.30
2024-03-26T14:17:37.049Z,16.26
2024-03-26T14:20:04.015Z,16.26
2024-03-26T14:22:31.107Z,16.16
2024-03-26T14:24:57.742Z,16.15
2024-03-26T14:27:23.925Z,16.06
2024-03-26T14:29:51.321Z,15.99
2024-03-26T14:32:18.542Z,16.01
2024-03-26T14:34:44.606Z,15.94
2024-03-26T14:37:11.003Z,16.00
2024-03-26T14:39:37.654Z,15.91
2024-03-26T14:42:04.924Z,16.01
2024-03-26T14:44:31.410Z,15.99
2024-03-26T14:46:57.612Z,16.08
2024-03-26T14:49:23.735Z,16.08
2024-03-26T14:51:50.157Z,16.14
2024-03-26T14:54:16.301Z,16.18
2024-03-26T14:56:43.270Z,16.24
2024-03-26T14:59:10.489Z,16.25
2024-03-26T15:01:36.721Z,16.29
2024-03-26T15:04:03.109Z,16.29
2024-03-26T15:06:29.372Z,16.14
2024-03-26T15:08:55.586Z,16.17
2024-03-26T15:11:21.664Z,16.12
2024-03-26T15:13:48.734Z,16.16
2024-03-26T15:16:16.329Z,16.18
2024-03-26T15:18:42.615Z,16.17
2024-03-26T15:21:09.733Z,16.19
2024-03-26T15:23:35.846Z,16.16
2024-03-26T15:26:02.096Z,16.21
2024-03-26T15:28:46.682Z,16.28
2024-03-26T15:31:28.337Z,16.31
2024-03-26T15:33:54.759Z,16.36
2024-03-26T15:36:20.848Z,16.33
2024-03-26T15:38:46.995Z,16.26
2024-03-26T15:41:13.371Z,16.22
2024-03-26T15:43:39.259Z,16.00
2024-03-26T15:46:05.476Z,16.04
2024-03-26T15:48:32.503Z,16.08
2024-03-26T15:50:58.680Z,16.14
2024-03-26T15:53:25.328Z,16.12
2024-03-26T15:55:53.009Z,16.05
2024-03-26T15:58:19.618Z,15.98
2024-03-26T16:00:45.763Z,15.93
2024-03-26T16:03:12.254Z,15.90
2024-03-26T16:05:39.010Z,15.88
2024-03-26T16:08:07.231Z,15.86
2024-03-26T16:10:52.716Z,15.84
2024-03-26T16:13:19.551Z,15.73
2024-03-26T16:15:46.005Z,15.75
2024-03-26T16:18:11.952Z,15.71
2024-03-26T16:20:38.750Z,15.80
2024-03-26T16:23:05.451Z,15.82
2024-03-26T16:25:32.753Z,15.83
2024-03-26T16:27:59.109Z,15.85
2024-03-26T16:30:25.714Z,15.82
2024-03-26T16:32:52.034Z,15.89
2024-03-26T16:35:18.998Z,15.88
2024-03-26T16:37:46.747Z,15.88
2024-03-26T16:40:14.311Z,15.87
2024-03-26T16:42:40.720Z,15.82
2024-03-26T16:45:07.427Z,15.69
2024-03-26T16:47:34.321Z,15.62
2024-03-26T16:50:00.642Z,15.55
2024-03-26T16:52:26.880Z,15.39
2024-03-26T16:54:53.927Z,15.39
2024-03-26T16:57:20.322Z,15.32
2024-03-26T16:59:46.470Z,15.20
2024-03-26T17:02:13.045Z,15.21
2024-03-26T17:04:41.085Z,15.08
2024-03-26T17:07:08.700Z,15.15
2024-03-26T17:09:35.274Z,15.10
2024-03-26T17:12:02.538Z,15.05
2024-03-26T17:14:29.309Z,15.01
2024-03-26T17:17:05.848Z,14.97
2024-03-26T17:19:41.491Z,14.91
2024-03-26T17:22:08.362Z,14.86
2024-03-26T17:24:34.969Z,14.79
2024-03-26T17:27:02.148Z,14.70
2024-03-26T17:29:28.441Z,14.65
2024-03-26T17:31:54.561Z,14.57
2024-03-26T17:34:21.042Z,14.50
2024-03-26T17:36:47.678Z,14.43
2024-03-26T17:39:13.964Z,14.30
2024-03-26T17:41:40.808Z,14.28
2024-03-26T17:44:07.740Z,14.21
2024-03-26T17:46:33.969Z,14.14
2024-03-26T17:49:00.516Z,14.10
2024-03-26T17:51:26.683Z,14.05
2024-03-26T17:53:53.463Z,14.00
2024-03-26T17:56:19.872Z,13.98
2024-03-26T17:58:46.048Z,13.93
2024-03-26T18:01:12.898Z,13.91
2024-03-26T18:03:39.351Z,13.90
2024-03-26T18:06:05.691Z,13.84
2024-03-26T18:08:31.846Z,13.86
2024-03-26T18:11:00.560Z,13.83
2024-03-26T18:13:27.066Z,13.78
2024-03-26T18:15:54.059Z,13.66
2024-03-26T18:18:21.204Z,13.68
2024-03-26T18:20:55.013Z,13.67
2024-03-26T18:23:21.495Z,13.67
2024-03-26T18:25:47.496Z,13.59
2024-03-26T18:28:14.022Z,13.63
2024-03-26T18:30:41.010Z,13.62
2024-03-26T18:33:07.531Z,13.62
2024-03-26T18:35:34.081Z,13.56
2024-03-26T18:38:00.665Z,13.53
2024-03-26T18:40:27.634Z,13.57
2024-03-26T18:42:54.259Z,13.54
2024-03-26T18:45:21.058Z,13.50
2024-03-26T18:47:47.312Z,13.46
2024-03-26T18:50:13.796Z,13.49
2024-03-26T18:52:40.960Z,13.47
2024-03-26T18:55:08.255Z,13.54
2024-03-26T18:57:34.444Z,13.57
2024-03-26T19:00:01.555Z,13.60
2024-03-26T19:02:29.465Z,13.66
2024-03-26T19:04:55.926Z,13.71
2024-03-26T19:07:22.665Z,13.72
2024-03-26T19:09:49.513Z,13.74
2024-03-26T19:12:16.902Z,13.76
2024-03-26T19:14:43.778Z,13.76
2024-03-26T19:17:10.202Z,13.76
2024-03-26T19:19:36.306Z,13.69
2024-03-26T19:22:03.250Z,13.72
2024-03-26T19:24:30.563Z,13.69
2024-03-26T19:26:57.507Z,13.67
2024-03-26T19:29:25.022Z,13.65
2024-03-26T19:31:51.425Z,13.63
2024-03-26T19:34:17.831Z,13.62
2024-03-26T19:36:44.473Z,13.61
2024-03-26T19:39:10.847Z,13.63
2024-03-26T19:41:37.535Z,13.60
2024-03-26T19:44:05.190Z,13.58
2024-03-26T19:46:32.058Z,13.58
2024-03-26T19:48:58.875Z,13.56
2024-03-26T19:51:26.581Z,13.55
2024-03-26T19:53:53.317Z,13.52
2024-03-26T19:56:19.804Z,13.50
2024-03-26T19:58:46.522Z,13.47
2024-03-26T20:01:13.290Z,13.40
2024-03-26T20:03:39.580Z,13.44
2024-03-26T20:06:10.487Z,13.45
2024-03-26T20:08:37.341Z,13.44
2024-03-26T20:11:04.336Z,13.45
2024-03-26T20:13:31.062Z,13.45
2024-03-26T20:15:57.697Z,13.44
2024-03-26T20:18:24.680Z,13.44
2024-03-26T20:20:54.253Z,13.43
2024-03-26T20:23:20.454Z,13.41
2024-03-26T20:25:46.786Z,13.38
2024-03-26T20:28:13.405Z,13.36
2024-03-26T20:30:40.578Z,13.31
2024-03-26T20:33:06.757Z,13.27
2024-03-26T20:35:36.597Z,13.22
2024-03-26T20:38:03.031Z,13.17
2024-03-26T20:40:29.763Z,13.12
2024-03-26T20:42:56.223Z,13.04
2024-03-26T20:45:22.610Z,12.96
2024-03-26T20:47:48.867Z,12.91
2024-03-26T20:50:17.607Z,12.90
2024-03-26T20:52:44.642Z,12.86
2024-03-26T20:55:11.075Z,12.83
2024-03-26T20:57:38.407Z,12.81
2024-03-26T21:00:07.239Z,12.80
2024-03-26T21:02:33.457Z,12.80
2024-03-26T21:05:02.046Z,12.79
2024-03-26T21:07:28.643Z,12.78
2024-03-26T21:09:55.685Z,12.76
2024-03-26T21:12:22.188Z,12.74
2024-03-26T21:14:48.493Z,12.64
2024-03-26T21:17:16.109Z,12.69
2024-03-26T21:19:42.636Z,12.70
2024-03-26T21:22:08.648Z,12.59
2024-03-26T21:24:35.666Z,12.63
2024-03-26T21:27:02.847Z,12.64
2024-03-26T21:29:29.080Z,12.63
2024-03-26T21:31:55.207Z,12.60
2024-03-26T21:34:21.705Z,12.59
2024-03-26T21:36:47.767Z,12.57
2024-03-26T21:39:13.979Z,12.59
2024-03-26T21:41:40.532Z,12.60
2024-03-26T21:44:07.089Z,12.54
2024-03-26T21:46:33.122Z,12.55
2024-03-26T21:48:59.776Z,12.57
2024-03-26T21:51:26.244Z,12.57
2024-03-26T21:53:52.801Z,12.57
2024-03-26T21:56:19.327Z,12.52
2024-03-26T21:58:45.734Z,12.50
2024-03-26T22:01:14.776Z,12.37
2024-03-26T22:03:41.526Z,12.37
2024-03-26T22:06:11.810Z,12.32
2024-03-26T22:08:38.067Z,12.27
2024-03-26T22:11:05.279Z,12.25
2024-03-26T22:13:31.554Z,12.23
2024-03-26T22:15:57.872Z,12.24
2024-03-26T22:18:25.248Z,12.24
2024-03-26T22:20:55.580Z,12.24
2024-03-26T22:23:22.117Z,12.23
2024-03-26T22:25:55.227Z,12.15
2024-03-26T22:28:21.808Z,12.18
2024-03-26T22:30:47.819Z,12.12
2024-03-26T22:33:14.320Z,12.16
2024-03-26T22:35:41.402Z,12.14
2024-03-26T22:38:08.198Z,12.11
2024-03-26T22:40:34.852Z,12.08
2024-03-26T22:43:01.220Z,12.06
2024-03-26T22:45:28.787Z,12.03
2024-03-26T22:47:55.376Z,12.04
2024-03-26T22:50:21.426Z,11.95
2024-03-26T22:52:48.267Z,11.94
2024-03-26T22:55:14.825Z,11.92
2024-03-26T22:57:40.890Z,11.85
2024-03-26T23:00:21.241Z,11.87
2024-03-26T23:02:50.602Z,11.85
2024-03-26T23:05:17.488Z,11.82
2024-03-26T23:07:43.991Z,11.80
2024-03-26T23:10:11.656Z,11.78
2024-03-26T23:12:38.007Z,11.74
2024-03-26T23:15:04.750Z,11.72
2024-03-26T23:17:31.582Z,11.70
2024-03-26T23:19:57.776Z,11.69
2024-03-26T23:22:24.290Z,11.68
2024-03-26T23:24:53.951Z,11.69
2024-03-26T23:27:20.961Z,11.66
2024-03-26T23:29:47.195Z,11.62
2024-03-26T23:32:13.920Z,11.63
2024-03-26T23:34:40.108Z,11.61
2024-03-26T23:37:06.339Z,11.62
2024-03-26T23:39:32.994Z,11.59
2024-03-26T23:41:59.221Z,11.55
2024-03-26T23:44:26.068Z,11.52
2024-03-26T23:46:52.526Z,11.49
2024-03-26T23:49:18.724Z,11.46
2024-03-26T23:51:45.820Z,11.46
2024-03-26T23:54:12.717Z,11.42
2024-03-26T23:56:39.085Z,11.38
2024-03-26T23:59:05.318Z,11.35
